<?xml version="1.0" encoding="UTF-8" standalone="no" ?>
<gpx xmlns="http://www.topografix.com/GPX/1/1" xmlns:xsi="http://www.w3.org/2001/XMLSchema-instance" xsi:schemaLocation="http://www.topografix.com/GPX/1/1 http://www.topografix.com/GPX/1/1/gpx.xsd" version="1.1" creator="VisuGPX - https://www.visugpx.com">
  <metadata>
    <name>64 - RAQUETTES - Benou - Boucle au tour du plateau.</name>
    <desc><![CDATA[boucle sur le Benou pour cause de risque d'avalanches]]></desc>
  </metadata>
  <trk>
    <name><![CDATA[ACTIVE LOG]]></name>
    <trkseg>
      <trkpt lat="43.06495" lon="-0.47075">
        <ele>855.22998</ele>
        <time>2013-01-30T09:16:07Z</time>
      </trkpt>
      <trkpt lat="43.06494" lon="-0.47075">
        <ele>855.22998</ele>
        <time>2013-01-30T09:16:09Z</time>
      </trkpt>
      <trkpt lat="43.06494" lon="-0.47075">
        <ele>855.22998</ele>
        <time>2013-01-30T09:16:10Z</time>
      </trkpt>
      <trkpt lat="43.06494" lon="-0.47075">
        <ele>859.075195</ele>
        <time>2013-01-30T09:16:14Z</time>
      </trkpt>
      <trkpt lat="43.06494" lon="-0.47075">
        <ele>861.47876</ele>
        <time>2013-01-30T09:16:18Z</time>
      </trkpt>
      <trkpt lat="43.06494" lon="-0.47076">
        <ele>866.285156</ele>
        <time>2013-01-30T09:16:24Z</time>
      </trkpt>
      <trkpt lat="43.06494" lon="-0.47076">
        <ele>866.285156</ele>
        <time>2013-01-30T09:16:25Z</time>
      </trkpt>
      <trkpt lat="43.06494" lon="-0.47076">
        <ele>869.649902</ele>
        <time>2013-01-30T09:16:30Z</time>
      </trkpt>
      <trkpt lat="43.06494" lon="-0.47075">
        <ele>872.533691</ele>
        <time>2013-01-30T09:16:37Z</time>
      </trkpt>
      <trkpt lat="43.06495" lon="-0.47076">
        <ele>875.898193</ele>
        <time>2013-01-30T09:16:46Z</time>
      </trkpt>
      <trkpt lat="43.06496" lon="-0.47077">
        <ele>879.262939</ele>
        <time>2013-01-30T09:17:01Z</time>
      </trkpt>
      <trkpt lat="43.06499" lon="-0.47086">
        <ele>879.262939</ele>
        <time>2013-01-30T09:17:39Z</time>
      </trkpt>
      <trkpt lat="43.06502" lon="-0.47107">
        <ele>879.262939</ele>
        <time>2013-01-30T09:17:58Z</time>
      </trkpt>
      <trkpt lat="43.06503" lon="-0.47133">
        <ele>877.340576</ele>
        <time>2013-01-30T09:18:19Z</time>
      </trkpt>
      <trkpt lat="43.06502" lon="-0.47157">
        <ele>876.859863</ele>
        <time>2013-01-30T09:18:38Z</time>
      </trkpt>
      <trkpt lat="43.06497" lon="-0.47171">
        <ele>877.340576</ele>
        <time>2013-01-30T09:18:56Z</time>
      </trkpt>
      <trkpt lat="43.06491" lon="-0.47191">
        <ele>876.859863</ele>
        <time>2013-01-30T09:19:11Z</time>
      </trkpt>
      <trkpt lat="43.065" lon="-0.47216">
        <ele>876.859863</ele>
        <time>2013-01-30T09:19:30Z</time>
      </trkpt>
      <trkpt lat="43.06509" lon="-0.4724">
        <ele>876.859863</ele>
        <time>2013-01-30T09:19:48Z</time>
      </trkpt>
      <trkpt lat="43.06511" lon="-0.47245">
        <ele>876.859863</ele>
        <time>2013-01-30T09:19:52Z</time>
      </trkpt>
      <trkpt lat="43.06519" lon="-0.47272">
        <ele>877.821045</ele>
        <time>2013-01-30T09:20:12Z</time>
      </trkpt>
      <trkpt lat="43.06529" lon="-0.47287">
        <ele>878.782471</ele>
        <time>2013-01-30T09:20:26Z</time>
      </trkpt>
      <trkpt lat="43.06547" lon="-0.47305">
        <ele>879.262939</ele>
        <time>2013-01-30T09:20:45Z</time>
      </trkpt>
      <trkpt lat="43.06563" lon="-0.47333">
        <ele>879.743652</ele>
        <time>2013-01-30T09:21:07Z</time>
      </trkpt>
      <trkpt lat="43.06577" lon="-0.47356">
        <ele>880.224365</ele>
        <time>2013-01-30T09:21:26Z</time>
      </trkpt>
      <trkpt lat="43.06592" lon="-0.47383">
        <ele>880.224365</ele>
        <time>2013-01-30T09:21:48Z</time>
      </trkpt>
      <trkpt lat="43.06605" lon="-0.47408">
        <ele>880.224365</ele>
        <time>2013-01-30T09:22:08Z</time>
      </trkpt>
      <trkpt lat="43.06615" lon="-0.47433">
        <ele>880.224365</ele>
        <time>2013-01-30T09:22:27Z</time>
      </trkpt>
      <trkpt lat="43.06624" lon="-0.47461">
        <ele>881.185791</ele>
        <time>2013-01-30T09:22:48Z</time>
      </trkpt>
      <trkpt lat="43.06631" lon="-0.47487">
        <ele>882.146973</ele>
        <time>2013-01-30T09:23:08Z</time>
      </trkpt>
      <trkpt lat="43.06636" lon="-0.4751">
        <ele>885.031006</ele>
        <time>2013-01-30T09:23:26Z</time>
      </trkpt>
      <trkpt lat="43.06643" lon="-0.47532">
        <ele>886.953369</ele>
        <time>2013-01-30T09:23:44Z</time>
      </trkpt>
      <trkpt lat="43.06649" lon="-0.47556">
        <ele>889.356689</ele>
        <time>2013-01-30T09:24:04Z</time>
      </trkpt>
      <trkpt lat="43.06652" lon="-0.47585">
        <ele>891.76001</ele>
        <time>2013-01-30T09:24:27Z</time>
      </trkpt>
      <trkpt lat="43.06659" lon="-0.47605">
        <ele>892.72168</ele>
        <time>2013-01-30T09:24:46Z</time>
      </trkpt>
      <trkpt lat="43.0666" lon="-0.47615">
        <ele>892.72168</ele>
        <time>2013-01-30T09:25:02Z</time>
      </trkpt>
      <trkpt lat="43.06663" lon="-0.47622">
        <ele>893.682861</ele>
        <time>2013-01-30T09:25:28Z</time>
      </trkpt>
      <trkpt lat="43.06671" lon="-0.47639">
        <ele>896.086182</ele>
        <time>2013-01-30T09:25:44Z</time>
      </trkpt>
      <trkpt lat="43.06676" lon="-0.47649">
        <ele>897.047363</ele>
        <time>2013-01-30T09:26:00Z</time>
      </trkpt>
      <trkpt lat="43.06683" lon="-0.47664">
        <ele>898.969971</ele>
        <time>2013-01-30T09:26:18Z</time>
      </trkpt>
      <trkpt lat="43.06689" lon="-0.47681">
        <ele>902.334473</ele>
        <time>2013-01-30T09:26:35Z</time>
      </trkpt>
      <trkpt lat="43.06691" lon="-0.47697">
        <ele>904.257324</ele>
        <time>2013-01-30T09:26:53Z</time>
      </trkpt>
      <trkpt lat="43.06692" lon="-0.47714">
        <ele>905.699219</ele>
        <time>2013-01-30T09:27:12Z</time>
      </trkpt>
      <trkpt lat="43.06691" lon="-0.47725">
        <ele>909.063965</ele>
        <time>2013-01-30T09:27:25Z</time>
      </trkpt>
      <trkpt lat="43.06695" lon="-0.47737">
        <ele>910.986572</ele>
        <time>2013-01-30T09:27:41Z</time>
      </trkpt>
      <trkpt lat="43.067" lon="-0.47753">
        <ele>913.389893</ele>
        <time>2013-01-30T09:27:59Z</time>
      </trkpt>
      <trkpt lat="43.06701" lon="-0.47764">
        <ele>915.3125</ele>
        <time>2013-01-30T09:28:16Z</time>
      </trkpt>
      <trkpt lat="43.06703" lon="-0.47778">
        <ele>917.235107</ele>
        <time>2013-01-30T09:28:32Z</time>
      </trkpt>
      <trkpt lat="43.06702" lon="-0.47788">
        <ele>920.599609</ele>
        <time>2013-01-30T09:28:46Z</time>
      </trkpt>
      <trkpt lat="43.06698" lon="-0.47802">
        <ele>923.964111</ele>
        <time>2013-01-30T09:29:36Z</time>
      </trkpt>
      <trkpt lat="43.06697" lon="-0.47821">
        <ele>926.367676</ele>
        <time>2013-01-30T09:29:53Z</time>
      </trkpt>
      <trkpt lat="43.06695" lon="-0.47832">
        <ele>926.367676</ele>
        <time>2013-01-30T09:30:11Z</time>
      </trkpt>
      <trkpt lat="43.06696" lon="-0.47844">
        <ele>927.80957</ele>
        <time>2013-01-30T09:30:27Z</time>
      </trkpt>
      <trkpt lat="43.067" lon="-0.47875">
        <ele>928.290283</ele>
        <time>2013-01-30T09:30:50Z</time>
      </trkpt>
      <trkpt lat="43.06707" lon="-0.47901">
        <ele>926.848389</ele>
        <time>2013-01-30T09:31:11Z</time>
      </trkpt>
      <trkpt lat="43.06708" lon="-0.47903">
        <ele>927.329102</ele>
        <time>2013-01-30T09:31:32Z</time>
      </trkpt>
      <trkpt lat="43.06712" lon="-0.47917">
        <ele>926.367676</ele>
        <time>2013-01-30T09:31:57Z</time>
      </trkpt>
      <trkpt lat="43.06716" lon="-0.47941">
        <ele>923.00293</ele>
        <time>2013-01-30T09:32:14Z</time>
      </trkpt>
      <trkpt lat="43.06717" lon="-0.47953">
        <ele>922.041504</ele>
        <time>2013-01-30T09:32:22Z</time>
      </trkpt>
      <trkpt lat="43.06718" lon="-0.47988">
        <ele>920.118896</ele>
        <time>2013-01-30T09:32:45Z</time>
      </trkpt>
      <trkpt lat="43.0672" lon="-0.4802">
        <ele>917.715576</ele>
        <time>2013-01-30T09:33:07Z</time>
      </trkpt>
      <trkpt lat="43.06722" lon="-0.48033">
        <ele>916.273682</ele>
        <time>2013-01-30T09:33:29Z</time>
      </trkpt>
      <trkpt lat="43.06722" lon="-0.48033">
        <ele>916.273682</ele>
        <time>2013-01-30T09:33:57Z</time>
      </trkpt>
      <trkpt lat="43.06722" lon="-0.4804">
        <ele>915.3125</ele>
        <time>2013-01-30T09:34:19Z</time>
      </trkpt>
      <trkpt lat="43.06722" lon="-0.48042">
        <ele>915.3125</ele>
        <time>2013-01-30T09:34:58Z</time>
      </trkpt>
      <trkpt lat="43.06732" lon="-0.48049">
        <ele>915.793213</ele>
        <time>2013-01-30T09:36:02Z</time>
      </trkpt>
      <trkpt lat="43.06744" lon="-0.48057">
        <ele>917.235107</ele>
        <time>2013-01-30T09:36:18Z</time>
      </trkpt>
      <trkpt lat="43.06751" lon="-0.48076">
        <ele>916.273682</ele>
        <time>2013-01-30T09:36:38Z</time>
      </trkpt>
      <trkpt lat="43.06751" lon="-0.48075">
        <ele>916.273682</ele>
        <time>2013-01-30T09:36:51Z</time>
      </trkpt>
      <trkpt lat="43.06761" lon="-0.481">
        <ele>916.273682</ele>
        <time>2013-01-30T09:37:11Z</time>
      </trkpt>
      <trkpt lat="43.06768" lon="-0.4812">
        <ele>915.793213</ele>
        <time>2013-01-30T09:37:27Z</time>
      </trkpt>
      <trkpt lat="43.06772" lon="-0.48143">
        <ele>913.870361</ele>
        <time>2013-01-30T09:37:44Z</time>
      </trkpt>
      <trkpt lat="43.06772" lon="-0.48153">
        <ele>912.428467</ele>
        <time>2013-01-30T09:37:52Z</time>
      </trkpt>
      <trkpt lat="43.06773" lon="-0.48155">
        <ele>911.947998</ele>
        <time>2013-01-30T09:37:54Z</time>
      </trkpt>
      <trkpt lat="43.06781" lon="-0.48176">
        <ele>913.870361</ele>
        <time>2013-01-30T09:38:13Z</time>
      </trkpt>
      <trkpt lat="43.06783" lon="-0.48184">
        <ele>913.389893</ele>
        <time>2013-01-30T09:38:19Z</time>
      </trkpt>
      <trkpt lat="43.06784" lon="-0.48187">
        <ele>912.90918</ele>
        <time>2013-01-30T09:38:21Z</time>
      </trkpt>
      <trkpt lat="43.06791" lon="-0.48215">
        <ele>913.870361</ele>
        <time>2013-01-30T09:38:43Z</time>
      </trkpt>
      <trkpt lat="43.06798" lon="-0.48236">
        <ele>915.3125</ele>
        <time>2013-01-30T09:39:01Z</time>
      </trkpt>
      <trkpt lat="43.06803" lon="-0.4825">
        <ele>915.3125</ele>
        <time>2013-01-30T09:39:16Z</time>
      </trkpt>
      <trkpt lat="43.0681" lon="-0.4827">
        <ele>914.831787</ele>
        <time>2013-01-30T09:39:35Z</time>
      </trkpt>
      <trkpt lat="43.06819" lon="-0.48289">
        <ele>915.3125</ele>
        <time>2013-01-30T09:39:54Z</time>
      </trkpt>
      <trkpt lat="43.06825" lon="-0.48307">
        <ele>914.351074</ele>
        <time>2013-01-30T09:40:12Z</time>
      </trkpt>
      <trkpt lat="43.06831" lon="-0.48323">
        <ele>913.389893</ele>
        <time>2013-01-30T09:40:29Z</time>
      </trkpt>
      <trkpt lat="43.06836" lon="-0.48334">
        <ele>913.389893</ele>
        <time>2013-01-30T09:40:46Z</time>
      </trkpt>
      <trkpt lat="43.06837" lon="-0.48325">
        <ele>913.389893</ele>
        <time>2013-01-30T09:41:27Z</time>
      </trkpt>
      <trkpt lat="43.06839" lon="-0.48324">
        <ele>913.389893</ele>
        <time>2013-01-30T09:41:48Z</time>
      </trkpt>
      <trkpt lat="43.06842" lon="-0.48334">
        <ele>913.870361</ele>
        <time>2013-01-30T09:42:11Z</time>
      </trkpt>
      <trkpt lat="43.06849" lon="-0.48343">
        <ele>913.389893</ele>
        <time>2013-01-30T09:42:24Z</time>
      </trkpt>
      <trkpt lat="43.06854" lon="-0.48358">
        <ele>913.870361</ele>
        <time>2013-01-30T09:42:39Z</time>
      </trkpt>
      <trkpt lat="43.06864" lon="-0.48372">
        <ele>915.3125</ele>
        <time>2013-01-30T09:42:56Z</time>
      </trkpt>
      <trkpt lat="43.06873" lon="-0.48382">
        <ele>916.273682</ele>
        <time>2013-01-30T09:43:10Z</time>
      </trkpt>
      <trkpt lat="43.06877" lon="-0.48399">
        <ele>916.273682</ele>
        <time>2013-01-30T09:43:26Z</time>
      </trkpt>
      <trkpt lat="43.0688" lon="-0.48419">
        <ele>916.273682</ele>
        <time>2013-01-30T09:43:43Z</time>
      </trkpt>
      <trkpt lat="43.06881" lon="-0.48421">
        <ele>916.754395</ele>
        <time>2013-01-30T09:43:53Z</time>
      </trkpt>
      <trkpt lat="43.06888" lon="-0.48422">
        <ele>917.715576</ele>
        <time>2013-01-30T09:44:07Z</time>
      </trkpt>
      <trkpt lat="43.06891" lon="-0.48422">
        <ele>919.157715</ele>
        <time>2013-01-30T09:44:13Z</time>
      </trkpt>
      <trkpt lat="43.06897" lon="-0.48421">
        <ele>922.522217</ele>
        <time>2013-01-30T09:44:25Z</time>
      </trkpt>
      <trkpt lat="43.06903" lon="-0.48425">
        <ele>922.522217</ele>
        <time>2013-01-30T09:44:42Z</time>
      </trkpt>
      <trkpt lat="43.06905" lon="-0.48431">
        <ele>924.445068</ele>
        <time>2013-01-30T09:44:57Z</time>
      </trkpt>
      <trkpt lat="43.06909" lon="-0.48437">
        <ele>927.329102</ele>
        <time>2013-01-30T09:45:13Z</time>
      </trkpt>
      <trkpt lat="43.06913" lon="-0.48444">
        <ele>930.212891</ele>
        <time>2013-01-30T09:45:29Z</time>
      </trkpt>
      <trkpt lat="43.06917" lon="-0.48455">
        <ele>932.135498</ele>
        <time>2013-01-30T09:45:45Z</time>
      </trkpt>
      <trkpt lat="43.06919" lon="-0.4846">
        <ele>926.367676</ele>
        <time>2013-01-30T09:45:57Z</time>
      </trkpt>
      <trkpt lat="43.06919" lon="-0.4846">
        <ele>933.09668</ele>
        <time>2013-01-30T09:45:58Z</time>
      </trkpt>
      <trkpt lat="43.06916" lon="-0.48457">
        <ele>932.135498</ele>
        <time>2013-01-30T09:46:31Z</time>
      </trkpt>
      <trkpt lat="43.06921" lon="-0.48467">
        <ele>933.09668</ele>
        <time>2013-01-30T09:46:57Z</time>
      </trkpt>
      <trkpt lat="43.06921" lon="-0.48469">
        <ele>933.09668</ele>
        <time>2013-01-30T09:46:58Z</time>
      </trkpt>
      <trkpt lat="43.06931" lon="-0.48486">
        <ele>933.09668</ele>
        <time>2013-01-30T09:47:16Z</time>
      </trkpt>
      <trkpt lat="43.06944" lon="-0.485">
        <ele>931.654785</ele>
        <time>2013-01-30T09:47:34Z</time>
      </trkpt>
      <trkpt lat="43.06947" lon="-0.48513">
        <ele>928.290283</ele>
        <time>2013-01-30T09:47:49Z</time>
      </trkpt>
      <trkpt lat="43.06948" lon="-0.48523">
        <ele>926.848389</ele>
        <time>2013-01-30T09:48:04Z</time>
      </trkpt>
      <trkpt lat="43.06951" lon="-0.48533">
        <ele>923.00293</ele>
        <time>2013-01-30T09:48:16Z</time>
      </trkpt>
      <trkpt lat="43.06956" lon="-0.48547">
        <ele>921.560791</ele>
        <time>2013-01-30T09:48:33Z</time>
      </trkpt>
      <trkpt lat="43.06959" lon="-0.48562">
        <ele>919.157715</ele>
        <time>2013-01-30T09:48:51Z</time>
      </trkpt>
      <trkpt lat="43.0696" lon="-0.48578">
        <ele>915.793213</ele>
        <time>2013-01-30T09:49:08Z</time>
      </trkpt>
      <trkpt lat="43.06961" lon="-0.48584">
        <ele>917.235107</ele>
        <time>2013-01-30T09:49:23Z</time>
      </trkpt>
      <trkpt lat="43.06963" lon="-0.48595">
        <ele>918.196289</ele>
        <time>2013-01-30T09:49:37Z</time>
      </trkpt>
      <trkpt lat="43.06966" lon="-0.48612">
        <ele>918.196289</ele>
        <time>2013-01-30T09:49:55Z</time>
      </trkpt>
      <trkpt lat="43.06972" lon="-0.4863">
        <ele>917.715576</ele>
        <time>2013-01-30T09:50:13Z</time>
      </trkpt>
      <trkpt lat="43.06978" lon="-0.4865">
        <ele>917.235107</ele>
        <time>2013-01-30T09:50:33Z</time>
      </trkpt>
      <trkpt lat="43.06983" lon="-0.4867">
        <ele>914.351074</ele>
        <time>2013-01-30T09:50:54Z</time>
      </trkpt>
      <trkpt lat="43.06988" lon="-0.48686">
        <ele>913.389893</ele>
        <time>2013-01-30T09:51:10Z</time>
      </trkpt>
      <trkpt lat="43.06995" lon="-0.48698">
        <ele>913.870361</ele>
        <time>2013-01-30T09:51:26Z</time>
      </trkpt>
      <trkpt lat="43.06997" lon="-0.48711">
        <ele>913.870361</ele>
        <time>2013-01-30T09:51:41Z</time>
      </trkpt>
      <trkpt lat="43.07" lon="-0.48719">
        <ele>912.90918</ele>
        <time>2013-01-30T09:52:00Z</time>
      </trkpt>
      <trkpt lat="43.07002" lon="-0.48726">
        <ele>913.389893</ele>
        <time>2013-01-30T09:52:20Z</time>
      </trkpt>
      <trkpt lat="43.07008" lon="-0.48738">
        <ele>912.428467</ele>
        <time>2013-01-30T09:52:36Z</time>
      </trkpt>
      <trkpt lat="43.07011" lon="-0.48748">
        <ele>911.947998</ele>
        <time>2013-01-30T09:52:56Z</time>
      </trkpt>
      <trkpt lat="43.07018" lon="-0.48767">
        <ele>913.870361</ele>
        <time>2013-01-30T09:53:15Z</time>
      </trkpt>
      <trkpt lat="43.07022" lon="-0.48782">
        <ele>913.870361</ele>
        <time>2013-01-30T09:53:33Z</time>
      </trkpt>
      <trkpt lat="43.07025" lon="-0.4879">
        <ele>913.870361</ele>
        <time>2013-01-30T09:53:49Z</time>
      </trkpt>
      <trkpt lat="43.0703" lon="-0.48806">
        <ele>912.90918</ele>
        <time>2013-01-30T09:54:08Z</time>
      </trkpt>
      <trkpt lat="43.07034" lon="-0.48824">
        <ele>912.90918</ele>
        <time>2013-01-30T09:54:24Z</time>
      </trkpt>
      <trkpt lat="43.07039" lon="-0.48843">
        <ele>913.389893</ele>
        <time>2013-01-30T09:54:42Z</time>
      </trkpt>
      <trkpt lat="43.0704" lon="-0.4885">
        <ele>913.870361</ele>
        <time>2013-01-30T09:54:59Z</time>
      </trkpt>
      <trkpt lat="43.07042" lon="-0.48858">
        <ele>917.235107</ele>
        <time>2013-01-30T09:55:14Z</time>
      </trkpt>
      <trkpt lat="43.07043" lon="-0.48862">
        <ele>918.196289</ele>
        <time>2013-01-30T09:55:22Z</time>
      </trkpt>
      <trkpt lat="43.07044" lon="-0.48872">
        <ele>920.118896</ele>
        <time>2013-01-30T09:55:37Z</time>
      </trkpt>
      <trkpt lat="43.07047" lon="-0.48891">
        <ele>921.080322</ele>
        <time>2013-01-30T09:55:57Z</time>
      </trkpt>
      <trkpt lat="43.07051" lon="-0.48908">
        <ele>920.118896</ele>
        <time>2013-01-30T09:56:16Z</time>
      </trkpt>
      <trkpt lat="43.07056" lon="-0.48925">
        <ele>921.560791</ele>
        <time>2013-01-30T09:56:34Z</time>
      </trkpt>
      <trkpt lat="43.0706" lon="-0.48943">
        <ele>921.560791</ele>
        <time>2013-01-30T09:56:52Z</time>
      </trkpt>
      <trkpt lat="43.07065" lon="-0.48963">
        <ele>922.041504</ele>
        <time>2013-01-30T09:57:12Z</time>
      </trkpt>
      <trkpt lat="43.07072" lon="-0.48985">
        <ele>921.560791</ele>
        <time>2013-01-30T09:57:32Z</time>
      </trkpt>
      <trkpt lat="43.07082" lon="-0.49001">
        <ele>921.560791</ele>
        <time>2013-01-30T09:57:49Z</time>
      </trkpt>
      <trkpt lat="43.07093" lon="-0.49022">
        <ele>919.157715</ele>
        <time>2013-01-30T09:58:10Z</time>
      </trkpt>
      <trkpt lat="43.07099" lon="-0.49036">
        <ele>919.157715</ele>
        <time>2013-01-30T09:58:26Z</time>
      </trkpt>
      <trkpt lat="43.07105" lon="-0.49058">
        <ele>919.638428</ele>
        <time>2013-01-30T09:58:45Z</time>
      </trkpt>
      <trkpt lat="43.07109" lon="-0.49079">
        <ele>918.677002</ele>
        <time>2013-01-30T09:59:04Z</time>
      </trkpt>
      <trkpt lat="43.07112" lon="-0.49101">
        <ele>917.715576</ele>
        <time>2013-01-30T09:59:23Z</time>
      </trkpt>
      <trkpt lat="43.07115" lon="-0.49119">
        <ele>917.715576</ele>
        <time>2013-01-30T09:59:42Z</time>
      </trkpt>
      <trkpt lat="43.07117" lon="-0.49121">
        <ele>917.715576</ele>
        <time>2013-01-30T10:00:04Z</time>
      </trkpt>
      <trkpt lat="43.07116" lon="-0.49125">
        <ele>916.754395</ele>
        <time>2013-01-30T10:00:33Z</time>
      </trkpt>
      <trkpt lat="43.07114" lon="-0.49138">
        <ele>915.3125</ele>
        <time>2013-01-30T10:00:49Z</time>
      </trkpt>
      <trkpt lat="43.07113" lon="-0.49149">
        <ele>912.428467</ele>
        <time>2013-01-30T10:01:04Z</time>
      </trkpt>
      <trkpt lat="43.07115" lon="-0.49165">
        <ele>914.351074</ele>
        <time>2013-01-30T10:01:22Z</time>
      </trkpt>
      <trkpt lat="43.07118" lon="-0.49181">
        <ele>917.235107</ele>
        <time>2013-01-30T10:01:40Z</time>
      </trkpt>
      <trkpt lat="43.0712" lon="-0.49193">
        <ele>920.599609</ele>
        <time>2013-01-30T10:01:53Z</time>
      </trkpt>
      <trkpt lat="43.07121" lon="-0.49199">
        <ele>921.080322</ele>
        <time>2013-01-30T10:02:14Z</time>
      </trkpt>
      <trkpt lat="43.07124" lon="-0.49214">
        <ele>921.560791</ele>
        <time>2013-01-30T10:02:31Z</time>
      </trkpt>
      <trkpt lat="43.0713" lon="-0.4923">
        <ele>923.483643</ele>
        <time>2013-01-30T10:02:49Z</time>
      </trkpt>
      <trkpt lat="43.07134" lon="-0.49243">
        <ele>923.483643</ele>
        <time>2013-01-30T10:03:08Z</time>
      </trkpt>
      <trkpt lat="43.07136" lon="-0.49252">
        <ele>924.445068</ele>
        <time>2013-01-30T10:03:27Z</time>
      </trkpt>
      <trkpt lat="43.07141" lon="-0.49264">
        <ele>924.445068</ele>
        <time>2013-01-30T10:03:41Z</time>
      </trkpt>
      <trkpt lat="43.07147" lon="-0.49274">
        <ele>923.964111</ele>
        <time>2013-01-30T10:03:59Z</time>
      </trkpt>
      <trkpt lat="43.07148" lon="-0.49282">
        <ele>923.964111</ele>
        <time>2013-01-30T10:04:12Z</time>
      </trkpt>
      <trkpt lat="43.07154" lon="-0.49288">
        <ele>923.964111</ele>
        <time>2013-01-30T10:04:30Z</time>
      </trkpt>
      <trkpt lat="43.07159" lon="-0.4929">
        <ele>924.445068</ele>
        <time>2013-01-30T10:04:42Z</time>
      </trkpt>
      <trkpt lat="43.07158" lon="-0.49297">
        <ele>927.329102</ele>
        <time>2013-01-30T10:04:55Z</time>
      </trkpt>
      <trkpt lat="43.07163" lon="-0.493">
        <ele>929.732178</ele>
        <time>2013-01-30T10:05:15Z</time>
      </trkpt>
      <trkpt lat="43.07164" lon="-0.49303">
        <ele>930.693604</ele>
        <time>2013-01-30T10:05:37Z</time>
      </trkpt>
      <trkpt lat="43.07164" lon="-0.49305">
        <ele>932.135498</ele>
        <time>2013-01-30T10:06:00Z</time>
      </trkpt>
      <trkpt lat="43.07163" lon="-0.49298">
        <ele>934.538818</ele>
        <time>2013-01-30T10:06:18Z</time>
      </trkpt>
      <trkpt lat="43.07157" lon="-0.49308">
        <ele>935.980713</ele>
        <time>2013-01-30T10:06:36Z</time>
      </trkpt>
      <trkpt lat="43.07159" lon="-0.49319">
        <ele>935.980713</ele>
        <time>2013-01-30T10:06:57Z</time>
      </trkpt>
      <trkpt lat="43.07161" lon="-0.49327">
        <ele>938.864746</ele>
        <time>2013-01-30T10:07:11Z</time>
      </trkpt>
      <trkpt lat="43.07164" lon="-0.49332">
        <ele>939.825928</ele>
        <time>2013-01-30T10:07:23Z</time>
      </trkpt>
      <trkpt lat="43.07166" lon="-0.49336">
        <ele>940.787354</ele>
        <time>2013-01-30T10:07:39Z</time>
      </trkpt>
      <trkpt lat="43.0717" lon="-0.49347">
        <ele>944.1521</ele>
        <time>2013-01-30T10:08:02Z</time>
      </trkpt>
      <trkpt lat="43.07171" lon="-0.49352">
        <ele>945.593994</ele>
        <time>2013-01-30T10:08:19Z</time>
      </trkpt>
      <trkpt lat="43.07174" lon="-0.49356">
        <ele>947.035889</ele>
        <time>2013-01-30T10:08:34Z</time>
      </trkpt>
      <trkpt lat="43.07174" lon="-0.4936">
        <ele>949.439209</ele>
        <time>2013-01-30T10:08:47Z</time>
      </trkpt>
      <trkpt lat="43.07175" lon="-0.49364">
        <ele>950.400635</ele>
        <time>2013-01-30T10:09:07Z</time>
      </trkpt>
      <trkpt lat="43.0718" lon="-0.49366">
        <ele>952.322998</ele>
        <time>2013-01-30T10:11:07Z</time>
      </trkpt>
      <trkpt lat="43.07182" lon="-0.4937">
        <ele>954.726318</ele>
        <time>2013-01-30T10:11:20Z</time>
      </trkpt>
      <trkpt lat="43.07184" lon="-0.49375">
        <ele>956.168457</ele>
        <time>2013-01-30T10:11:35Z</time>
      </trkpt>
      <trkpt lat="43.07186" lon="-0.4938">
        <ele>958.091309</ele>
        <time>2013-01-30T10:11:53Z</time>
      </trkpt>
      <trkpt lat="43.0719" lon="-0.49382">
        <ele>958.091309</ele>
        <time>2013-01-30T10:12:12Z</time>
      </trkpt>
      <trkpt lat="43.07191" lon="-0.49386">
        <ele>960.975098</ele>
        <time>2013-01-30T10:12:26Z</time>
      </trkpt>
      <trkpt lat="43.07191" lon="-0.49393">
        <ele>963.378418</ele>
        <time>2013-01-30T10:12:40Z</time>
      </trkpt>
      <trkpt lat="43.07192" lon="-0.49399">
        <ele>962.897705</ele>
        <time>2013-01-30T10:12:57Z</time>
      </trkpt>
      <trkpt lat="43.07189" lon="-0.49406">
        <ele>965.301025</ele>
        <time>2013-01-30T10:13:18Z</time>
      </trkpt>
      <trkpt lat="43.0719" lon="-0.49411">
        <ele>966.262207</ele>
        <time>2013-01-30T10:13:33Z</time>
      </trkpt>
      <trkpt lat="43.07192" lon="-0.49414">
        <ele>969.14624</ele>
        <time>2013-01-30T10:13:49Z</time>
      </trkpt>
      <trkpt lat="43.07194" lon="-0.4942">
        <ele>970.107422</ele>
        <time>2013-01-30T10:14:02Z</time>
      </trkpt>
      <trkpt lat="43.07196" lon="-0.49424">
        <ele>971.549316</ele>
        <time>2013-01-30T10:14:19Z</time>
      </trkpt>
      <trkpt lat="43.07201" lon="-0.49429">
        <ele>972.510986</ele>
        <time>2013-01-30T10:14:33Z</time>
      </trkpt>
      <trkpt lat="43.07206" lon="-0.49439">
        <ele>975.394775</ele>
        <time>2013-01-30T10:14:51Z</time>
      </trkpt>
      <trkpt lat="43.07211" lon="-0.49442">
        <ele>977.317627</ele>
        <time>2013-01-30T10:15:11Z</time>
      </trkpt>
      <trkpt lat="43.07216" lon="-0.49452">
        <ele>978.759521</ele>
        <time>2013-01-30T10:15:29Z</time>
      </trkpt>
      <trkpt lat="43.07219" lon="-0.49461">
        <ele>981.643311</ele>
        <time>2013-01-30T10:15:43Z</time>
      </trkpt>
      <trkpt lat="43.07226" lon="-0.49472">
        <ele>981.643311</ele>
        <time>2013-01-30T10:16:02Z</time>
      </trkpt>
      <trkpt lat="43.0723" lon="-0.49478">
        <ele>983.085205</ele>
        <time>2013-01-30T10:16:32Z</time>
      </trkpt>
      <trkpt lat="43.07234" lon="-0.49482">
        <ele>986.449951</ele>
        <time>2013-01-30T10:16:40Z</time>
      </trkpt>
      <trkpt lat="43.07243" lon="-0.49488">
        <ele>988.372803</ele>
        <time>2013-01-30T10:16:57Z</time>
      </trkpt>
      <trkpt lat="43.07251" lon="-0.49495">
        <ele>991.737305</ele>
        <time>2013-01-30T10:17:14Z</time>
      </trkpt>
      <trkpt lat="43.07258" lon="-0.49501">
        <ele>994.140625</ele>
        <time>2013-01-30T10:17:30Z</time>
      </trkpt>
      <trkpt lat="43.07263" lon="-0.4951">
        <ele>997.024414</ele>
        <time>2013-01-30T10:17:43Z</time>
      </trkpt>
      <trkpt lat="43.07273" lon="-0.49513">
        <ele>998.947021</ele>
        <time>2013-01-30T10:18:02Z</time>
      </trkpt>
      <trkpt lat="43.07275" lon="-0.49516">
        <ele>999.427734</ele>
        <time>2013-01-30T10:18:33Z</time>
      </trkpt>
      <trkpt lat="43.07281" lon="-0.49521">
        <ele>1001.350342</ele>
        <time>2013-01-30T10:18:46Z</time>
      </trkpt>
      <trkpt lat="43.07281" lon="-0.49521">
        <ele>1001.350342</ele>
        <time>2013-01-30T10:18:47Z</time>
      </trkpt>
      <trkpt lat="43.07293" lon="-0.49527">
        <ele>1003.753662</ele>
        <time>2013-01-30T10:19:05Z</time>
      </trkpt>
      <trkpt lat="43.07302" lon="-0.49527">
        <ele>1005.195801</ele>
        <time>2013-01-30T10:19:20Z</time>
      </trkpt>
      <trkpt lat="43.0731" lon="-0.49523">
        <ele>1006.156982</ele>
        <time>2013-01-30T10:19:31Z</time>
      </trkpt>
      <trkpt lat="43.07316" lon="-0.49516">
        <ele>1007.118408</ele>
        <time>2013-01-30T10:19:43Z</time>
      </trkpt>
      <trkpt lat="43.0732" lon="-0.49501">
        <ele>1010.002197</ele>
        <time>2013-01-30T10:20:00Z</time>
      </trkpt>
      <trkpt lat="43.07326" lon="-0.49493">
        <ele>1010.963623</ele>
        <time>2013-01-30T10:20:23Z</time>
      </trkpt>
      <trkpt lat="43.07333" lon="-0.4949">
        <ele>1010.963623</ele>
        <time>2013-01-30T10:20:50Z</time>
      </trkpt>
      <trkpt lat="43.07336" lon="-0.49495">
        <ele>1012.88623</ele>
        <time>2013-01-30T10:21:04Z</time>
      </trkpt>
      <trkpt lat="43.07339" lon="-0.495">
        <ele>1014.328125</ele>
        <time>2013-01-30T10:21:23Z</time>
      </trkpt>
      <trkpt lat="43.07344" lon="-0.49508">
        <ele>1015.289551</ele>
        <time>2013-01-30T10:21:43Z</time>
      </trkpt>
      <trkpt lat="43.07354" lon="-0.49517">
        <ele>1016.250732</ele>
        <time>2013-01-30T10:22:00Z</time>
      </trkpt>
      <trkpt lat="43.07361" lon="-0.49528">
        <ele>1016.250732</ele>
        <time>2013-01-30T10:22:16Z</time>
      </trkpt>
      <trkpt lat="43.07367" lon="-0.49536">
        <ele>1015.770264</ele>
        <time>2013-01-30T10:22:30Z</time>
      </trkpt>
      <trkpt lat="43.0737" lon="-0.49551">
        <ele>1014.808838</ele>
        <time>2013-01-30T10:22:45Z</time>
      </trkpt>
      <trkpt lat="43.07377" lon="-0.49565">
        <ele>1013.847412</ele>
        <time>2013-01-30T10:23:02Z</time>
      </trkpt>
      <trkpt lat="43.07383" lon="-0.49575">
        <ele>1013.847412</ele>
        <time>2013-01-30T10:23:13Z</time>
      </trkpt>
      <trkpt lat="43.07389" lon="-0.49585">
        <ele>1013.366943</ele>
        <time>2013-01-30T10:23:26Z</time>
      </trkpt>
      <trkpt lat="43.07395" lon="-0.49594">
        <ele>1013.847412</ele>
        <time>2013-01-30T10:23:39Z</time>
      </trkpt>
      <trkpt lat="43.07406" lon="-0.49606">
        <ele>1015.289551</ele>
        <time>2013-01-30T10:24:10Z</time>
      </trkpt>
      <trkpt lat="43.07412" lon="-0.49612">
        <ele>1015.770264</ele>
        <time>2013-01-30T10:24:26Z</time>
      </trkpt>
      <trkpt lat="43.07412" lon="-0.4962">
        <ele>1016.250732</ele>
        <time>2013-01-30T10:24:51Z</time>
      </trkpt>
      <trkpt lat="43.07413" lon="-0.49615">
        <ele>1017.212158</ele>
        <time>2013-01-30T10:25:29Z</time>
      </trkpt>
      <trkpt lat="43.07417" lon="-0.49608">
        <ele>1017.692627</ele>
        <time>2013-01-30T10:26:09Z</time>
      </trkpt>
      <trkpt lat="43.07419" lon="-0.49609">
        <ele>1021.057617</ele>
        <time>2013-01-30T10:26:30Z</time>
      </trkpt>
      <trkpt lat="43.07415" lon="-0.49616">
        <ele>1022.499512</ele>
        <time>2013-01-30T10:27:05Z</time>
      </trkpt>
      <trkpt lat="43.07415" lon="-0.49607">
        <ele>1025.383301</ele>
        <time>2013-01-30T10:27:15Z</time>
      </trkpt>
      <trkpt lat="43.0742" lon="-0.49602">
        <ele>1024.902832</ele>
        <time>2013-01-30T10:27:31Z</time>
      </trkpt>
      <trkpt lat="43.07421" lon="-0.49609">
        <ele>1027.306152</ele>
        <time>2013-01-30T10:27:51Z</time>
      </trkpt>
      <trkpt lat="43.07422" lon="-0.49607">
        <ele>1026.825439</ele>
        <time>2013-01-30T10:28:26Z</time>
      </trkpt>
      <trkpt lat="43.07429" lon="-0.49604">
        <ele>1028.267334</ele>
        <time>2013-01-30T10:28:55Z</time>
      </trkpt>
      <trkpt lat="43.07419" lon="-0.496">
        <ele>1028.748047</ele>
        <time>2013-01-30T10:29:19Z</time>
      </trkpt>
      <trkpt lat="43.07423" lon="-0.49598">
        <ele>1030.189941</ele>
        <time>2013-01-30T10:29:44Z</time>
      </trkpt>
      <trkpt lat="43.07425" lon="-0.49597">
        <ele>1030.189941</ele>
        <time>2013-01-30T10:30:30Z</time>
      </trkpt>
      <trkpt lat="43.07423" lon="-0.49595">
        <ele>1029.228516</ele>
        <time>2013-01-30T10:31:10Z</time>
      </trkpt>
      <trkpt lat="43.07423" lon="-0.49599">
        <ele>1029.709229</ele>
        <time>2013-01-30T10:31:30Z</time>
      </trkpt>
      <trkpt lat="43.07414" lon="-0.49595">
        <ele>1027.306152</ele>
        <time>2013-01-30T10:32:05Z</time>
      </trkpt>
      <trkpt lat="43.0741" lon="-0.49591">
        <ele>1023.941406</ele>
        <time>2013-01-30T10:32:34Z</time>
      </trkpt>
      <trkpt lat="43.07409" lon="-0.49594">
        <ele>1022.980225</ele>
        <time>2013-01-30T10:32:56Z</time>
      </trkpt>
      <trkpt lat="43.07408" lon="-0.49589">
        <ele>1020.576904</ele>
        <time>2013-01-30T10:33:37Z</time>
      </trkpt>
      <trkpt lat="43.07402" lon="-0.49597">
        <ele>1019.134766</ele>
        <time>2013-01-30T10:33:59Z</time>
      </trkpt>
      <trkpt lat="43.07399" lon="-0.49601">
        <ele>1016.250732</ele>
        <time>2013-01-30T10:34:40Z</time>
      </trkpt>
      <trkpt lat="43.07393" lon="-0.49592">
        <ele>1015.289551</ele>
        <time>2013-01-30T10:34:55Z</time>
      </trkpt>
      <trkpt lat="43.07384" lon="-0.49579">
        <ele>1015.770264</ele>
        <time>2013-01-30T10:35:11Z</time>
      </trkpt>
      <trkpt lat="43.07379" lon="-0.4957">
        <ele>1016.731445</ele>
        <time>2013-01-30T10:35:21Z</time>
      </trkpt>
      <trkpt lat="43.07374" lon="-0.49558">
        <ele>1017.692627</ele>
        <time>2013-01-30T10:35:33Z</time>
      </trkpt>
      <trkpt lat="43.07372" lon="-0.49552">
        <ele>1017.692627</ele>
        <time>2013-01-30T10:35:37Z</time>
      </trkpt>
      <trkpt lat="43.07366" lon="-0.49534">
        <ele>1018.17334</ele>
        <time>2013-01-30T10:35:51Z</time>
      </trkpt>
      <trkpt lat="43.0736" lon="-0.49521">
        <ele>1018.17334</ele>
        <time>2013-01-30T10:36:06Z</time>
      </trkpt>
      <trkpt lat="43.07351" lon="-0.49506">
        <ele>1017.692627</ele>
        <time>2013-01-30T10:36:24Z</time>
      </trkpt>
      <trkpt lat="43.07339" lon="-0.49498">
        <ele>1015.770264</ele>
        <time>2013-01-30T10:36:40Z</time>
      </trkpt>
      <trkpt lat="43.07332" lon="-0.49495">
        <ele>1014.328125</ele>
        <time>2013-01-30T10:36:49Z</time>
      </trkpt>
      <trkpt lat="43.07323" lon="-0.49487">
        <ele>1012.88623</ele>
        <time>2013-01-30T10:37:04Z</time>
      </trkpt>
      <trkpt lat="43.07331" lon="-0.49476">
        <ele>1012.405518</ele>
        <time>2013-01-30T10:37:20Z</time>
      </trkpt>
      <trkpt lat="43.07335" lon="-0.49471">
        <ele>1012.405518</ele>
        <time>2013-01-30T10:37:37Z</time>
      </trkpt>
      <trkpt lat="43.07338" lon="-0.49464">
        <ele>1013.366943</ele>
        <time>2013-01-30T10:37:51Z</time>
      </trkpt>
      <trkpt lat="43.07343" lon="-0.49468">
        <ele>1013.847412</ele>
        <time>2013-01-30T10:38:11Z</time>
      </trkpt>
      <trkpt lat="43.07351" lon="-0.49461">
        <ele>1014.328125</ele>
        <time>2013-01-30T10:38:26Z</time>
      </trkpt>
      <trkpt lat="43.07356" lon="-0.49453">
        <ele>1014.328125</ele>
        <time>2013-01-30T10:38:41Z</time>
      </trkpt>
      <trkpt lat="43.07355" lon="-0.49439">
        <ele>1013.847412</ele>
        <time>2013-01-30T10:39:16Z</time>
      </trkpt>
      <trkpt lat="43.07357" lon="-0.4943">
        <ele>1014.808838</ele>
        <time>2013-01-30T10:39:35Z</time>
      </trkpt>
      <trkpt lat="43.0736" lon="-0.4943">
        <ele>1014.328125</ele>
        <time>2013-01-30T10:40:00Z</time>
      </trkpt>
      <trkpt lat="43.07359" lon="-0.49434">
        <ele>1013.847412</ele>
        <time>2013-01-30T10:40:31Z</time>
      </trkpt>
      <trkpt lat="43.07353" lon="-0.49445">
        <ele>1013.847412</ele>
        <time>2013-01-30T10:40:49Z</time>
      </trkpt>
      <trkpt lat="43.07341" lon="-0.49455">
        <ele>1013.847412</ele>
        <time>2013-01-30T10:41:06Z</time>
      </trkpt>
      <trkpt lat="43.07329" lon="-0.49468">
        <ele>1012.88623</ele>
        <time>2013-01-30T10:41:24Z</time>
      </trkpt>
      <trkpt lat="43.07323" lon="-0.49471">
        <ele>1013.366943</ele>
        <time>2013-01-30T10:41:42Z</time>
      </trkpt>
      <trkpt lat="43.07316" lon="-0.49487">
        <ele>1013.366943</ele>
        <time>2013-01-30T10:42:01Z</time>
      </trkpt>
      <trkpt lat="43.07316" lon="-0.49503">
        <ele>1011.444336</ele>
        <time>2013-01-30T10:42:18Z</time>
      </trkpt>
      <trkpt lat="43.07314" lon="-0.49509">
        <ele>1010.002197</ele>
        <time>2013-01-30T10:42:25Z</time>
      </trkpt>
      <trkpt lat="43.07305" lon="-0.49518">
        <ele>1006.637695</ele>
        <time>2013-01-30T10:42:41Z</time>
      </trkpt>
      <trkpt lat="43.07293" lon="-0.4952">
        <ele>1005.195801</ele>
        <time>2013-01-30T10:42:57Z</time>
      </trkpt>
      <trkpt lat="43.07284" lon="-0.49515">
        <ele>1003.753662</ele>
        <time>2013-01-30T10:43:13Z</time>
      </trkpt>
      <trkpt lat="43.07272" lon="-0.49508">
        <ele>1000.869629</ele>
        <time>2013-01-30T10:43:31Z</time>
      </trkpt>
      <trkpt lat="43.07262" lon="-0.49501">
        <ele>997.505127</ele>
        <time>2013-01-30T10:43:46Z</time>
      </trkpt>
      <trkpt lat="43.07257" lon="-0.49498">
        <ele>995.58252</ele>
        <time>2013-01-30T10:43:54Z</time>
      </trkpt>
      <trkpt lat="43.0725" lon="-0.49494">
        <ele>993.179199</ele>
        <time>2013-01-30T10:44:09Z</time>
      </trkpt>
      <trkpt lat="43.0724" lon="-0.49481">
        <ele>990.775879</ele>
        <time>2013-01-30T10:44:26Z</time>
      </trkpt>
      <trkpt lat="43.07232" lon="-0.49473">
        <ele>987.891846</ele>
        <time>2013-01-30T10:44:40Z</time>
      </trkpt>
      <trkpt lat="43.07226" lon="-0.49473">
        <ele>985.488525</ele>
        <time>2013-01-30T10:44:57Z</time>
      </trkpt>
      <trkpt lat="43.07225" lon="-0.49479">
        <ele>985.008057</ele>
        <time>2013-01-30T10:45:03Z</time>
      </trkpt>
      <trkpt lat="43.07227" lon="-0.49498">
        <ele>983.085205</ele>
        <time>2013-01-30T10:45:20Z</time>
      </trkpt>
      <trkpt lat="43.07228" lon="-0.49517">
        <ele>981.162842</ele>
        <time>2013-01-30T10:45:34Z</time>
      </trkpt>
      <trkpt lat="43.07231" lon="-0.49537">
        <ele>978.278809</ele>
        <time>2013-01-30T10:45:51Z</time>
      </trkpt>
      <trkpt lat="43.07235" lon="-0.49554">
        <ele>974.914307</ele>
        <time>2013-01-30T10:46:07Z</time>
      </trkpt>
      <trkpt lat="43.07233" lon="-0.49566">
        <ele>972.991699</ele>
        <time>2013-01-30T10:46:19Z</time>
      </trkpt>
      <trkpt lat="43.07236" lon="-0.49571">
        <ele>972.510986</ele>
        <time>2013-01-30T10:46:32Z</time>
      </trkpt>
      <trkpt lat="43.07248" lon="-0.49586">
        <ele>973.952881</ele>
        <time>2013-01-30T10:46:49Z</time>
      </trkpt>
      <trkpt lat="43.07259" lon="-0.49598">
        <ele>974.433594</ele>
        <time>2013-01-30T10:47:05Z</time>
      </trkpt>
      <trkpt lat="43.07261" lon="-0.49598">
        <ele>974.433594</ele>
        <time>2013-01-30T10:47:07Z</time>
      </trkpt>
      <trkpt lat="43.07274" lon="-0.49601">
        <ele>974.433594</ele>
        <time>2013-01-30T10:47:21Z</time>
      </trkpt>
      <trkpt lat="43.07284" lon="-0.49604">
        <ele>974.914307</ele>
        <time>2013-01-30T10:47:33Z</time>
      </trkpt>
      <trkpt lat="43.07294" lon="-0.4961">
        <ele>975.394775</ele>
        <time>2013-01-30T10:47:45Z</time>
      </trkpt>
      <trkpt lat="43.07296" lon="-0.49611">
        <ele>974.914307</ele>
        <time>2013-01-30T10:47:48Z</time>
      </trkpt>
      <trkpt lat="43.07306" lon="-0.49622">
        <ele>975.394775</ele>
        <time>2013-01-30T10:48:03Z</time>
      </trkpt>
      <trkpt lat="43.07312" lon="-0.49633">
        <ele>975.875488</ele>
        <time>2013-01-30T10:48:14Z</time>
      </trkpt>
      <trkpt lat="43.07317" lon="-0.49642">
        <ele>975.875488</ele>
        <time>2013-01-30T10:48:24Z</time>
      </trkpt>
      <trkpt lat="43.07323" lon="-0.4965">
        <ele>975.875488</ele>
        <time>2013-01-30T10:48:37Z</time>
      </trkpt>
      <trkpt lat="43.07332" lon="-0.49657">
        <ele>976.836914</ele>
        <time>2013-01-30T10:48:52Z</time>
      </trkpt>
      <trkpt lat="43.07339" lon="-0.4966">
        <ele>976.836914</ele>
        <time>2013-01-30T10:49:04Z</time>
      </trkpt>
      <trkpt lat="43.0734" lon="-0.49659">
        <ele>977.317627</ele>
        <time>2013-01-30T10:49:40Z</time>
      </trkpt>
      <trkpt lat="43.07341" lon="-0.49655">
        <ele>976.836914</ele>
        <time>2013-01-30T10:50:18Z</time>
      </trkpt>
      <trkpt lat="43.07332" lon="-0.49643">
        <ele>976.836914</ele>
        <time>2013-01-30T10:51:26Z</time>
      </trkpt>
      <trkpt lat="43.07321" lon="-0.4963">
        <ele>976.356201</ele>
        <time>2013-01-30T10:51:45Z</time>
      </trkpt>
      <trkpt lat="43.07308" lon="-0.4962">
        <ele>975.394775</ele>
        <time>2013-01-30T10:52:01Z</time>
      </trkpt>
      <trkpt lat="43.07307" lon="-0.49619">
        <ele>975.875488</ele>
        <time>2013-01-30T10:52:02Z</time>
      </trkpt>
      <trkpt lat="43.07293" lon="-0.49608">
        <ele>975.875488</ele>
        <time>2013-01-30T10:52:19Z</time>
      </trkpt>
      <trkpt lat="43.07282" lon="-0.49604">
        <ele>975.875488</ele>
        <time>2013-01-30T10:52:30Z</time>
      </trkpt>
      <trkpt lat="43.07266" lon="-0.49598">
        <ele>974.914307</ele>
        <time>2013-01-30T10:52:47Z</time>
      </trkpt>
      <trkpt lat="43.07258" lon="-0.49593">
        <ele>974.914307</ele>
        <time>2013-01-30T10:52:55Z</time>
      </trkpt>
      <trkpt lat="43.07244" lon="-0.49579">
        <ele>973.952881</ele>
        <time>2013-01-30T10:53:12Z</time>
      </trkpt>
      <trkpt lat="43.0723" lon="-0.49559">
        <ele>972.991699</ele>
        <time>2013-01-30T10:53:31Z</time>
      </trkpt>
      <trkpt lat="43.07222" lon="-0.49542">
        <ele>972.030273</ele>
        <time>2013-01-30T10:53:45Z</time>
      </trkpt>
      <trkpt lat="43.07221" lon="-0.49538">
        <ele>971.068848</ele>
        <time>2013-01-30T10:53:48Z</time>
      </trkpt>
      <trkpt lat="43.07206" lon="-0.49519">
        <ele>969.14624</ele>
        <time>2013-01-30T10:54:06Z</time>
      </trkpt>
      <trkpt lat="43.07201" lon="-0.49515">
        <ele>967.223633</ele>
        <time>2013-01-30T10:54:12Z</time>
      </trkpt>
      <trkpt lat="43.07198" lon="-0.49512">
        <ele>966.74292</ele>
        <time>2013-01-30T10:54:16Z</time>
      </trkpt>
      <trkpt lat="43.07185" lon="-0.495">
        <ele>963.378418</ele>
        <time>2013-01-30T10:54:31Z</time>
      </trkpt>
      <trkpt lat="43.07174" lon="-0.49489">
        <ele>960.013672</ele>
        <time>2013-01-30T10:54:44Z</time>
      </trkpt>
      <trkpt lat="43.07169" lon="-0.49485">
        <ele>958.091309</ele>
        <time>2013-01-30T10:54:50Z</time>
      </trkpt>
      <trkpt lat="43.07157" lon="-0.49477">
        <ele>956.64917</ele>
        <time>2013-01-30T10:55:07Z</time>
      </trkpt>
      <trkpt lat="43.07144" lon="-0.49464">
        <ele>954.24585</ele>
        <time>2013-01-30T10:55:24Z</time>
      </trkpt>
      <trkpt lat="43.07131" lon="-0.4945">
        <ele>950.400635</ele>
        <time>2013-01-30T10:55:44Z</time>
      </trkpt>
      <trkpt lat="43.07124" lon="-0.49453">
        <ele>947.997314</ele>
        <time>2013-01-30T10:55:58Z</time>
      </trkpt>
      <trkpt lat="43.07121" lon="-0.49469">
        <ele>946.55542</ele>
        <time>2013-01-30T10:56:14Z</time>
      </trkpt>
      <trkpt lat="43.07115" lon="-0.49481">
        <ele>944.1521</ele>
        <time>2013-01-30T10:56:31Z</time>
      </trkpt>
      <trkpt lat="43.07111" lon="-0.49495">
        <ele>941.268066</ele>
        <time>2013-01-30T10:56:46Z</time>
      </trkpt>
      <trkpt lat="43.07111" lon="-0.49503">
        <ele>939.825928</ele>
        <time>2013-01-30T10:57:03Z</time>
      </trkpt>
      <trkpt lat="43.07104" lon="-0.49509">
        <ele>939.345215</ele>
        <time>2013-01-30T10:57:19Z</time>
      </trkpt>
      <trkpt lat="43.07095" lon="-0.49504">
        <ele>936.461426</ele>
        <time>2013-01-30T10:57:34Z</time>
      </trkpt>
      <trkpt lat="43.07093" lon="-0.49516">
        <ele>933.577393</ele>
        <time>2013-01-30T10:57:48Z</time>
      </trkpt>
      <trkpt lat="43.07085" lon="-0.49526">
        <ele>932.135498</ele>
        <time>2013-01-30T10:58:04Z</time>
      </trkpt>
      <trkpt lat="43.07077" lon="-0.49531">
        <ele>928.770996</ele>
        <time>2013-01-30T10:58:17Z</time>
      </trkpt>
      <trkpt lat="43.07067" lon="-0.49532">
        <ele>927.329102</ele>
        <time>2013-01-30T10:58:32Z</time>
      </trkpt>
      <trkpt lat="43.07062" lon="-0.4953">
        <ele>924.445068</ele>
        <time>2013-01-30T10:58:42Z</time>
      </trkpt>
      <trkpt lat="43.07058" lon="-0.49532">
        <ele>921.560791</ele>
        <time>2013-01-30T10:58:52Z</time>
      </trkpt>
      <trkpt lat="43.07046" lon="-0.49533">
        <ele>919.638428</ele>
        <time>2013-01-30T10:59:08Z</time>
      </trkpt>
      <trkpt lat="43.07036" lon="-0.49533">
        <ele>918.196289</ele>
        <time>2013-01-30T10:59:23Z</time>
      </trkpt>
      <trkpt lat="43.07032" lon="-0.49533">
        <ele>916.754395</ele>
        <time>2013-01-30T10:59:28Z</time>
      </trkpt>
      <trkpt lat="43.07019" lon="-0.4953">
        <ele>913.870361</ele>
        <time>2013-01-30T10:59:46Z</time>
      </trkpt>
      <trkpt lat="43.07006" lon="-0.49527">
        <ele>910.505859</ele>
        <time>2013-01-30T11:00:03Z</time>
      </trkpt>
      <trkpt lat="43.06997" lon="-0.49523">
        <ele>908.583252</ele>
        <time>2013-01-30T11:00:19Z</time>
      </trkpt>
      <trkpt lat="43.0699" lon="-0.49519">
        <ele>907.141113</ele>
        <time>2013-01-30T11:00:33Z</time>
      </trkpt>
      <trkpt lat="43.06982" lon="-0.49518">
        <ele>906.6604</ele>
        <time>2013-01-30T11:00:49Z</time>
      </trkpt>
      <trkpt lat="43.0698" lon="-0.49521">
        <ele>905.699219</ele>
        <time>2013-01-30T11:01:08Z</time>
      </trkpt>
      <trkpt lat="43.06972" lon="-0.49519">
        <ele>904.737793</ele>
        <time>2013-01-30T11:01:23Z</time>
      </trkpt>
      <trkpt lat="43.06969" lon="-0.49518">
        <ele>904.257324</ele>
        <time>2013-01-30T11:01:44Z</time>
      </trkpt>
      <trkpt lat="43.06967" lon="-0.49517">
        <ele>903.776611</ele>
        <time>2013-01-30T11:01:46Z</time>
      </trkpt>
      <trkpt lat="43.06955" lon="-0.49502">
        <ele>903.776611</ele>
        <time>2013-01-30T11:02:09Z</time>
      </trkpt>
      <trkpt lat="43.06948" lon="-0.49486">
        <ele>902.334473</ele>
        <time>2013-01-30T11:02:30Z</time>
      </trkpt>
      <trkpt lat="43.06938" lon="-0.49464">
        <ele>901.854004</ele>
        <time>2013-01-30T11:02:49Z</time>
      </trkpt>
      <trkpt lat="43.0693" lon="-0.49447">
        <ele>901.373291</ele>
        <time>2013-01-30T11:03:05Z</time>
      </trkpt>
      <trkpt lat="43.06922" lon="-0.49432">
        <ele>901.373291</ele>
        <time>2013-01-30T11:03:22Z</time>
      </trkpt>
      <trkpt lat="43.0691" lon="-0.49411">
        <ele>900.892578</ele>
        <time>2013-01-30T11:03:43Z</time>
      </trkpt>
      <trkpt lat="43.06899" lon="-0.49389">
        <ele>899.931396</ele>
        <time>2013-01-30T11:04:01Z</time>
      </trkpt>
      <trkpt lat="43.06887" lon="-0.49365">
        <ele>898.489258</ele>
        <time>2013-01-30T11:04:21Z</time>
      </trkpt>
      <trkpt lat="43.06873" lon="-0.49342">
        <ele>898.489258</ele>
        <time>2013-01-30T11:04:41Z</time>
      </trkpt>
      <trkpt lat="43.06862" lon="-0.49322">
        <ele>898.489258</ele>
        <time>2013-01-30T11:05:00Z</time>
      </trkpt>
      <trkpt lat="43.06848" lon="-0.49297">
        <ele>897.528076</ele>
        <time>2013-01-30T11:05:22Z</time>
      </trkpt>
      <trkpt lat="43.06835" lon="-0.49269">
        <ele>897.528076</ele>
        <time>2013-01-30T11:05:44Z</time>
      </trkpt>
      <trkpt lat="43.06821" lon="-0.49245">
        <ele>896.566895</ele>
        <time>2013-01-30T11:06:04Z</time>
      </trkpt>
      <trkpt lat="43.0681" lon="-0.49224">
        <ele>896.566895</ele>
        <time>2013-01-30T11:06:23Z</time>
      </trkpt>
      <trkpt lat="43.06796" lon="-0.49205">
        <ele>895.124756</ele>
        <time>2013-01-30T11:06:43Z</time>
      </trkpt>
      <trkpt lat="43.06783" lon="-0.49184">
        <ele>894.644043</ele>
        <time>2013-01-30T11:07:06Z</time>
      </trkpt>
      <trkpt lat="43.06781" lon="-0.4918">
        <ele>894.163574</ele>
        <time>2013-01-30T11:07:25Z</time>
      </trkpt>
      <trkpt lat="43.06765" lon="-0.4915">
        <ele>894.163574</ele>
        <time>2013-01-30T11:07:47Z</time>
      </trkpt>
      <trkpt lat="43.06747" lon="-0.49121">
        <ele>893.202148</ele>
        <time>2013-01-30T11:08:12Z</time>
      </trkpt>
      <trkpt lat="43.06734" lon="-0.491">
        <ele>893.682861</ele>
        <time>2013-01-30T11:08:30Z</time>
      </trkpt>
      <trkpt lat="43.06718" lon="-0.49074">
        <ele>892.72168</ele>
        <time>2013-01-30T11:08:52Z</time>
      </trkpt>
      <trkpt lat="43.06701" lon="-0.49049">
        <ele>892.240967</ele>
        <time>2013-01-30T11:09:13Z</time>
      </trkpt>
      <trkpt lat="43.06684" lon="-0.4902">
        <ele>892.72168</ele>
        <time>2013-01-30T11:09:37Z</time>
      </trkpt>
      <trkpt lat="43.06667" lon="-0.48994">
        <ele>892.72168</ele>
        <time>2013-01-30T11:10:00Z</time>
      </trkpt>
      <trkpt lat="43.06658" lon="-0.48978">
        <ele>891.76001</ele>
        <time>2013-01-30T11:10:19Z</time>
      </trkpt>
      <trkpt lat="43.06645" lon="-0.48952">
        <ele>891.279297</ele>
        <time>2013-01-30T11:10:40Z</time>
      </trkpt>
      <trkpt lat="43.06632" lon="-0.48931">
        <ele>891.279297</ele>
        <time>2013-01-30T11:11:03Z</time>
      </trkpt>
      <trkpt lat="43.06613" lon="-0.48899">
        <ele>890.798584</ele>
        <time>2013-01-30T11:11:30Z</time>
      </trkpt>
      <trkpt lat="43.06612" lon="-0.48896">
        <ele>890.798584</ele>
        <time>2013-01-30T11:11:48Z</time>
      </trkpt>
      <trkpt lat="43.06598" lon="-0.48871">
        <ele>890.798584</ele>
        <time>2013-01-30T11:12:09Z</time>
      </trkpt>
      <trkpt lat="43.06584" lon="-0.48844">
        <ele>891.279297</ele>
        <time>2013-01-30T11:12:30Z</time>
      </trkpt>
      <trkpt lat="43.06571" lon="-0.48816">
        <ele>889.837402</ele>
        <time>2013-01-30T11:12:54Z</time>
      </trkpt>
      <trkpt lat="43.0656" lon="-0.48789">
        <ele>889.356689</ele>
        <time>2013-01-30T11:13:14Z</time>
      </trkpt>
      <trkpt lat="43.06547" lon="-0.48757">
        <ele>888.395508</ele>
        <time>2013-01-30T11:13:37Z</time>
      </trkpt>
      <trkpt lat="43.06534" lon="-0.48726">
        <ele>887.914795</ele>
        <time>2013-01-30T11:13:59Z</time>
      </trkpt>
      <trkpt lat="43.06525" lon="-0.48701">
        <ele>887.914795</ele>
        <time>2013-01-30T11:14:18Z</time>
      </trkpt>
      <trkpt lat="43.06514" lon="-0.48673">
        <ele>887.914795</ele>
        <time>2013-01-30T11:14:39Z</time>
      </trkpt>
      <trkpt lat="43.06502" lon="-0.48645">
        <ele>887.434082</ele>
        <time>2013-01-30T11:14:59Z</time>
      </trkpt>
      <trkpt lat="43.06491" lon="-0.48618">
        <ele>886.953369</ele>
        <time>2013-01-30T11:15:19Z</time>
      </trkpt>
      <trkpt lat="43.06476" lon="-0.4859">
        <ele>886.4729</ele>
        <time>2013-01-30T11:15:41Z</time>
      </trkpt>
      <trkpt lat="43.06458" lon="-0.48561">
        <ele>885.992188</ele>
        <time>2013-01-30T11:16:04Z</time>
      </trkpt>
      <trkpt lat="43.06446" lon="-0.48545">
        <ele>887.434082</ele>
        <time>2013-01-30T11:16:21Z</time>
      </trkpt>
      <trkpt lat="43.06433" lon="-0.4852">
        <ele>886.4729</ele>
        <time>2013-01-30T11:16:41Z</time>
      </trkpt>
      <trkpt lat="43.06428" lon="-0.48513">
        <ele>886.953369</ele>
        <time>2013-01-30T11:16:56Z</time>
      </trkpt>
      <trkpt lat="43.06417" lon="-0.48491">
        <ele>886.4729</ele>
        <time>2013-01-30T11:17:18Z</time>
      </trkpt>
      <trkpt lat="43.06417" lon="-0.48488">
        <ele>886.4729</ele>
        <time>2013-01-30T11:17:38Z</time>
      </trkpt>
      <trkpt lat="43.06417" lon="-0.48488">
        <ele>887.434082</ele>
        <time>2013-01-30T11:17:53Z</time>
      </trkpt>
      <trkpt lat="43.06418" lon="-0.48486">
        <ele>887.434082</ele>
        <time>2013-01-30T11:18:23Z</time>
      </trkpt>
      <trkpt lat="43.06417" lon="-0.48481">
        <ele>888.876221</ele>
        <time>2013-01-30T11:18:38Z</time>
      </trkpt>
      <trkpt lat="43.06416" lon="-0.48477">
        <ele>891.279297</ele>
        <time>2013-01-30T11:19:00Z</time>
      </trkpt>
      <trkpt lat="43.06416" lon="-0.48478">
        <ele>890.798584</ele>
        <time>2013-01-30T11:19:08Z</time>
      </trkpt>
      <trkpt lat="43.06413" lon="-0.48476">
        <ele>890.798584</ele>
        <time>2013-01-30T11:19:16Z</time>
      </trkpt>
      <trkpt lat="43.06412" lon="-0.48479">
        <ele>890.318115</ele>
        <time>2013-01-30T11:21:30Z</time>
      </trkpt>
      <trkpt lat="43.06413" lon="-0.4848">
        <ele>890.798584</ele>
        <time>2013-01-30T11:21:43Z</time>
      </trkpt>
      <trkpt lat="43.06415" lon="-0.48475">
        <ele>889.356689</ele>
        <time>2013-01-30T11:25:36Z</time>
      </trkpt>
      <trkpt lat="43.06415" lon="-0.48475">
        <ele>889.837402</ele>
        <time>2013-01-30T11:44:19Z</time>
      </trkpt>
      <trkpt lat="43.06415" lon="-0.48476">
        <ele>889.356689</ele>
        <time>2013-01-30T11:45:19Z</time>
      </trkpt>
      <trkpt lat="43.06414" lon="-0.48476">
        <ele>887.434082</ele>
        <time>2013-01-30T11:46:32Z</time>
      </trkpt>
      <trkpt lat="43.06412" lon="-0.48475">
        <ele>889.837402</ele>
        <time>2013-01-30T11:48:11Z</time>
      </trkpt>
      <trkpt lat="43.06412" lon="-0.48477">
        <ele>887.914795</ele>
        <time>2013-01-30T11:48:35Z</time>
      </trkpt>
      <trkpt lat="43.06413" lon="-0.48478">
        <ele>887.914795</ele>
        <time>2013-01-30T11:48:43Z</time>
      </trkpt>
      <trkpt lat="43.06414" lon="-0.48478">
        <ele>887.434082</ele>
        <time>2013-01-30T11:48:58Z</time>
      </trkpt>
      <trkpt lat="43.06415" lon="-0.48481">
        <ele>886.4729</ele>
        <time>2013-01-30T11:49:56Z</time>
      </trkpt>
      <trkpt lat="43.06413" lon="-0.48477">
        <ele>884.550293</ele>
        <time>2013-01-30T11:50:16Z</time>
      </trkpt>
      <trkpt lat="43.06414" lon="-0.48477">
        <ele>884.550293</ele>
        <time>2013-01-30T11:50:27Z</time>
      </trkpt>
      <trkpt lat="43.06408" lon="-0.4847">
        <ele>885.031006</ele>
        <time>2013-01-30T11:50:51Z</time>
      </trkpt>
      <trkpt lat="43.06406" lon="-0.48469">
        <ele>885.992188</ele>
        <time>2013-01-30T11:51:14Z</time>
      </trkpt>
      <trkpt lat="43.06413" lon="-0.48468">
        <ele>886.4729</ele>
        <time>2013-01-30T11:51:36Z</time>
      </trkpt>
      <trkpt lat="43.06408" lon="-0.48469">
        <ele>886.953369</ele>
        <time>2013-01-30T11:51:47Z</time>
      </trkpt>
      <trkpt lat="43.06404" lon="-0.48464">
        <ele>886.953369</ele>
        <time>2013-01-30T11:51:54Z</time>
      </trkpt>
      <trkpt lat="43.06396" lon="-0.48442">
        <ele>887.434082</ele>
        <time>2013-01-30T11:52:13Z</time>
      </trkpt>
      <trkpt lat="43.06389" lon="-0.48416">
        <ele>887.914795</ele>
        <time>2013-01-30T11:52:34Z</time>
      </trkpt>
      <trkpt lat="43.06387" lon="-0.48387">
        <ele>888.395508</ele>
        <time>2013-01-30T11:52:53Z</time>
      </trkpt>
      <trkpt lat="43.06384" lon="-0.48367">
        <ele>887.914795</ele>
        <time>2013-01-30T11:53:09Z</time>
      </trkpt>
      <trkpt lat="43.06382" lon="-0.48349">
        <ele>887.434082</ele>
        <time>2013-01-30T11:53:22Z</time>
      </trkpt>
      <trkpt lat="43.06383" lon="-0.48323">
        <ele>886.953369</ele>
        <time>2013-01-30T11:53:42Z</time>
      </trkpt>
      <trkpt lat="43.06379" lon="-0.48292">
        <ele>886.953369</ele>
        <time>2013-01-30T11:54:03Z</time>
      </trkpt>
      <trkpt lat="43.06374" lon="-0.48273">
        <ele>886.953369</ele>
        <time>2013-01-30T11:54:18Z</time>
      </trkpt>
      <trkpt lat="43.06369" lon="-0.48241">
        <ele>886.953369</ele>
        <time>2013-01-30T11:54:40Z</time>
      </trkpt>
      <trkpt lat="43.06366" lon="-0.48212">
        <ele>885.992188</ele>
        <time>2013-01-30T11:55:00Z</time>
      </trkpt>
      <trkpt lat="43.06362" lon="-0.4819">
        <ele>886.4729</ele>
        <time>2013-01-30T11:55:17Z</time>
      </trkpt>
      <trkpt lat="43.06361" lon="-0.48185">
        <ele>886.4729</ele>
        <time>2013-01-30T11:55:22Z</time>
      </trkpt>
      <trkpt lat="43.0636" lon="-0.48156">
        <ele>886.4729</ele>
        <time>2013-01-30T11:55:42Z</time>
      </trkpt>
      <trkpt lat="43.0636" lon="-0.48153">
        <ele>885.511475</ele>
        <time>2013-01-30T11:56:05Z</time>
      </trkpt>
      <trkpt lat="43.06361" lon="-0.48123">
        <ele>884.550293</ele>
        <time>2013-01-30T11:56:24Z</time>
      </trkpt>
      <trkpt lat="43.06356" lon="-0.481">
        <ele>884.550293</ele>
        <time>2013-01-30T11:56:41Z</time>
      </trkpt>
      <trkpt lat="43.06351" lon="-0.4807">
        <ele>884.550293</ele>
        <time>2013-01-30T11:57:02Z</time>
      </trkpt>
      <trkpt lat="43.06345" lon="-0.48037">
        <ele>885.031006</ele>
        <time>2013-01-30T11:57:22Z</time>
      </trkpt>
      <trkpt lat="43.06343" lon="-0.48005">
        <ele>885.031006</ele>
        <time>2013-01-30T11:57:41Z</time>
      </trkpt>
      <trkpt lat="43.0635" lon="-0.47985">
        <ele>885.031006</ele>
        <time>2013-01-30T11:57:57Z</time>
      </trkpt>
      <trkpt lat="43.06368" lon="-0.47972">
        <ele>885.511475</ele>
        <time>2013-01-30T11:58:17Z</time>
      </trkpt>
      <trkpt lat="43.06379" lon="-0.47962">
        <ele>885.992188</ele>
        <time>2013-01-30T11:58:35Z</time>
      </trkpt>
      <trkpt lat="43.06394" lon="-0.47947">
        <ele>886.4729</ele>
        <time>2013-01-30T11:58:52Z</time>
      </trkpt>
      <trkpt lat="43.06411" lon="-0.47934">
        <ele>886.4729</ele>
        <time>2013-01-30T11:59:11Z</time>
      </trkpt>
      <trkpt lat="43.06414" lon="-0.47934">
        <ele>886.4729</ele>
        <time>2013-01-30T11:59:14Z</time>
      </trkpt>
      <trkpt lat="43.06417" lon="-0.47932">
        <ele>886.4729</ele>
        <time>2013-01-30T11:59:18Z</time>
      </trkpt>
      <trkpt lat="43.06419" lon="-0.47926">
        <ele>886.4729</ele>
        <time>2013-01-30T11:59:23Z</time>
      </trkpt>
      <trkpt lat="43.06429" lon="-0.47898">
        <ele>887.434082</ele>
        <time>2013-01-30T11:59:43Z</time>
      </trkpt>
      <trkpt lat="43.06429" lon="-0.47882">
        <ele>888.395508</ele>
        <time>2013-01-30T12:00:02Z</time>
      </trkpt>
      <trkpt lat="43.06426" lon="-0.47855">
        <ele>888.395508</ele>
        <time>2013-01-30T12:00:22Z</time>
      </trkpt>
      <trkpt lat="43.06424" lon="-0.47824">
        <ele>888.876221</ele>
        <time>2013-01-30T12:00:44Z</time>
      </trkpt>
      <trkpt lat="43.06426" lon="-0.47794">
        <ele>888.876221</ele>
        <time>2013-01-30T12:01:05Z</time>
      </trkpt>
      <trkpt lat="43.0643" lon="-0.47761">
        <ele>887.434082</ele>
        <time>2013-01-30T12:01:27Z</time>
      </trkpt>
      <trkpt lat="43.06433" lon="-0.47733">
        <ele>887.434082</ele>
        <time>2013-01-30T12:01:46Z</time>
      </trkpt>
      <trkpt lat="43.06442" lon="-0.47709">
        <ele>885.031006</ele>
        <time>2013-01-30T12:02:05Z</time>
      </trkpt>
      <trkpt lat="43.0646" lon="-0.47681">
        <ele>883.108154</ele>
        <time>2013-01-30T12:02:28Z</time>
      </trkpt>
      <trkpt lat="43.06474" lon="-0.47655">
        <ele>881.185791</ele>
        <time>2013-01-30T12:02:49Z</time>
      </trkpt>
      <trkpt lat="43.06478" lon="-0.47632">
        <ele>881.185791</ele>
        <time>2013-01-30T12:03:07Z</time>
      </trkpt>
      <trkpt lat="43.06479" lon="-0.47624">
        <ele>879.743652</ele>
        <time>2013-01-30T12:03:21Z</time>
      </trkpt>
      <trkpt lat="43.0648" lon="-0.47594">
        <ele>879.262939</ele>
        <time>2013-01-30T12:03:42Z</time>
      </trkpt>
      <trkpt lat="43.06479" lon="-0.47573">
        <ele>879.743652</ele>
        <time>2013-01-30T12:03:58Z</time>
      </trkpt>
      <trkpt lat="43.06478" lon="-0.47544">
        <ele>879.743652</ele>
        <time>2013-01-30T12:04:18Z</time>
      </trkpt>
      <trkpt lat="43.06479" lon="-0.47514">
        <ele>879.743652</ele>
        <time>2013-01-30T12:04:38Z</time>
      </trkpt>
      <trkpt lat="43.0648" lon="-0.47494">
        <ele>880.705078</ele>
        <time>2013-01-30T12:04:51Z</time>
      </trkpt>
      <trkpt lat="43.06479" lon="-0.47457">
        <ele>880.705078</ele>
        <time>2013-01-30T12:05:15Z</time>
      </trkpt>
      <trkpt lat="43.06479" lon="-0.47422">
        <ele>879.743652</ele>
        <time>2013-01-30T12:05:37Z</time>
      </trkpt>
      <trkpt lat="43.0648" lon="-0.4742">
        <ele>879.743652</ele>
        <time>2013-01-30T12:05:39Z</time>
      </trkpt>
      <trkpt lat="43.06481" lon="-0.47391">
        <ele>879.262939</ele>
        <time>2013-01-30T12:05:58Z</time>
      </trkpt>
      <trkpt lat="43.06482" lon="-0.47355">
        <ele>878.301758</ele>
        <time>2013-01-30T12:06:21Z</time>
      </trkpt>
      <trkpt lat="43.06484" lon="-0.47324">
        <ele>878.301758</ele>
        <time>2013-01-30T12:06:41Z</time>
      </trkpt>
      <trkpt lat="43.06485" lon="-0.47294">
        <ele>877.340576</ele>
        <time>2013-01-30T12:07:00Z</time>
      </trkpt>
      <trkpt lat="43.06485" lon="-0.47262">
        <ele>876.859863</ele>
        <time>2013-01-30T12:07:21Z</time>
      </trkpt>
      <trkpt lat="43.06487" lon="-0.47226">
        <ele>877.340576</ele>
        <time>2013-01-30T12:07:45Z</time>
      </trkpt>
      <trkpt lat="43.06489" lon="-0.47195">
        <ele>877.340576</ele>
        <time>2013-01-30T12:08:07Z</time>
      </trkpt>
      <trkpt lat="43.06489" lon="-0.47192">
        <ele>876.37915</ele>
        <time>2013-01-30T12:08:24Z</time>
      </trkpt>
      <trkpt lat="43.06488" lon="-0.47191">
        <ele>877.821045</ele>
        <time>2013-01-30T12:08:27Z</time>
      </trkpt>
      <trkpt lat="43.06487" lon="-0.47184">
        <ele>877.821045</ele>
        <time>2013-01-30T12:08:38Z</time>
      </trkpt>
      <trkpt lat="43.06493" lon="-0.47177">
        <ele>876.37915</ele>
        <time>2013-01-30T12:08:53Z</time>
      </trkpt>
      <trkpt lat="43.06493" lon="-0.4718">
        <ele>875.41748</ele>
        <time>2013-01-30T12:09:11Z</time>
      </trkpt>
      <trkpt lat="43.06493" lon="-0.4718">
        <ele>876.37915</ele>
        <time>2013-01-30T12:09:12Z</time>
      </trkpt>
      <trkpt lat="43.06494" lon="-0.47175">
        <ele>879.262939</ele>
        <time>2013-01-30T12:09:15Z</time>
      </trkpt>
      <trkpt lat="43.06498" lon="-0.47147">
        <ele>877.821045</ele>
        <time>2013-01-30T12:09:32Z</time>
      </trkpt>
      <trkpt lat="43.06496" lon="-0.47122">
        <ele>880.705078</ele>
        <time>2013-01-30T12:09:52Z</time>
      </trkpt>
      <trkpt lat="43.06491" lon="-0.47102">
        <ele>879.743652</ele>
        <time>2013-01-30T12:10:10Z</time>
      </trkpt>
      <trkpt lat="43.0649" lon="-0.4709">
        <ele>878.782471</ele>
        <time>2013-01-30T12:10:20Z</time>
      </trkpt>
      <trkpt lat="43.06491" lon="-0.47081">
        <ele>877.821045</ele>
        <time>2013-01-30T12:10:41Z</time>
      </trkpt>
      <trkpt lat="43.06494" lon="-0.47082">
        <ele>877.821045</ele>
        <time>2013-01-30T12:10:53Z</time>
      </trkpt>
      <trkpt lat="43.06494" lon="-0.4708">
        <ele>879.262939</ele>
        <time>2013-01-30T12:10:59Z</time>
      </trkpt>
      <trkpt lat="43.06495" lon="-0.47081">
        <ele>878.782471</ele>
        <time>2013-01-30T12:11:20Z</time>
      </trkpt>
      <trkpt lat="43.06495" lon="-0.4708">
        <ele>878.782471</ele>
        <time>2013-01-30T12:11:41Z</time>
      </trkpt>
      <trkpt lat="43.06495" lon="-0.47081">
        <ele>879.262939</ele>
        <time>2013-01-30T12:12:05Z</time>
      </trkpt>
      <trkpt lat="43.06495" lon="-0.47081">
        <ele>877.821045</ele>
        <time>2013-01-30T12:12:07Z</time>
      </trkpt>
    </trkseg>
  </trk>
</gpx>